createdAt,value
2024-02-03T00:00:07.184Z,100518.81
2024-02-03T00:02:34.170Z,100516.22
2024-02-03T00:05:00.698Z,100508.97
2024-02-03T00:07:27.726Z,100510.78
2024-02-03T00:09:54.510Z,100516.72
2024-02-03T00:12:27.182Z,100510.81
2024-02-03T00:14:53.958Z,100507.84
2024-02-03T00:17:20.594Z,100507.09
2024-02-03T00:19:47.409Z,100508.66
2024-02-03T00:22:14.179Z,100495.25
2024-02-03T00:24:40.876Z,100497.78
2024-02-03T00:27:07.794Z,100489.84
2024-02-03T00:29:35.462Z,100487.97
2024-02-03T00:32:02.128Z,100487.00
2024-02-03T00:34:28.857Z,100482.41
2024-02-03T00:36:55.449Z,100476.84
2024-02-03T00:39:22.052Z,100486.84
2024-02-03T00:41:48.668Z,100478.16
2024-02-03T00:44:16.595Z,100471.69
2024-02-03T00:46:43.404Z,100461.72
2024-02-03T00:49:10.033Z,100461.41
2024-02-03T00:51:36.626Z,100466.38
2024-02-03T00:54:03.244Z,100468.31
2024-02-03T00:56:29.909Z,100458.78
2024-02-03T00:58:56.394Z,100470.59
2024-02-03T01:01:23.020Z,100471.13
2024-02-03T01:03:49.861Z,100471.66
2024-02-03T01:06:16.588Z,100467.97
2024-02-03T01:08:43.176Z,100467.78
2024-02-03T01:11:09.774Z,100462.03
2024-02-03T01:13:36.379Z,100466.84
2024-02-03T01:16:03.211Z,100464.84
2024-02-03T01:18:29.846Z,100455.50
2024-02-03T01:20:56.597Z,100452.75
2024-02-03T01:23:23.113Z,100453.63
2024-02-03T01:25:50.743Z,100448.47
2024-02-03T01:28:17.302Z,100456.63
2024-02-03T01:30:44.039Z,100457.50
2024-02-03T01:33:10.654Z,100462.66
2024-02-03T01:35:37.274Z,100465.81
2024-02-03T01:38:03.843Z,100469.69
2024-02-03T01:40:30.502Z,100476.47
2024-02-03T01:43:03.423Z,100464.88
2024-02-03T01:45:30.268Z,100463.78
2024-02-03T01:47:58.180Z,100464.78
2024-02-03T01:50:26.821Z,100459.09
2024-02-03T01:52:54.148Z,100464.44
2024-02-03T01:55:21.371Z,100462.22
2024-02-03T01:57:49.534Z,100455.50
2024-02-03T02:00:16.938Z,100448.16
2024-02-03T02:02:43.662Z,100438.09
2024-02-03T02:05:10.517Z,100431.06
2024-02-03T02:07:46.023Z,100425.69
2024-02-03T02:10:13.981Z,100424.72
2024-02-03T02:12:40.708Z,100412.38
2024-02-03T02:15:07.582Z,100416.59
2024-02-03T02:17:34.639Z,100409.34
2024-02-03T02:20:08.320Z,100405.91
2024-02-03T02:22:35.548Z,100407.00
2024-02-03T02:25:02.453Z,100412.16
2024-02-03T02:27:28.981Z,100414.53
2024-02-03T02:29:55.514Z,100395.12
2024-02-03T02:32:22.006Z,100393.50
2024-02-03T02:34:48.765Z,100397.44
2024-02-03T02:37:15.855Z,100393.31
2024-02-03T02:39:42.381Z,100390.38
2024-02-03T02:42:09.904Z,100378.28
2024-02-03T02:44:36.464Z,100393.00
2024-02-03T02:47:02.999Z,100389.09
2024-02-03T02:49:29.827Z,100382.81
2024-02-03T02:51:56.464Z,100385.78
2024-02-03T02:54:23.068Z,100390.28
2024-02-03T02:56:49.544Z,100388.56
2024-02-03T02:59:17.700Z,100391.19
2024-02-03T03:01:44.548Z,100389.28
2024-02-03T03:04:11.292Z,100394.00
2024-02-03T03:06:37.943Z,100385.81
2024-02-03T03:09:26.785Z,100383.03
2024-02-03T03:11:53.845Z,100386.37
2024-02-03T03:14:20.486Z,100384.22
2024-02-03T03:16:47.013Z,100376.06
2024-02-03T03:19:13.585Z,100376.13
2024-02-03T03:21:40.170Z,100370.94
2024-02-03T03:24:07.142Z,100361.94
2024-02-03T03:26:33.793Z,100353.22
2024-02-03T03:29:00.341Z,100350.28
2024-02-03T03:31:26.821Z,100354.88
2024-02-03T03:33:53.426Z,100352.53
2024-02-03T03:36:20.058Z,100347.38
2024-02-03T03:38:52.624Z,100360.50
2024-02-03T03:41:19.157Z,100363.22
2024-02-03T03:43:46.935Z,100350.41
2024-02-03T03:46:13.447Z,100359.22
2024-02-03T03:48:40.148Z,100360.13
2024-02-03T03:51:15.361Z,100359.06
2024-02-03T03:53:41.953Z,100362.34
2024-02-03T03:56:08.467Z,100367.41
2024-02-03T03:58:34.935Z,100370.84
2024-02-03T04:01:01.590Z,100377.91
2024-02-03T04:03:28.125Z,100361.72
2024-02-03T04:05:54.994Z,100362.22
2024-02-03T04:11:16.855Z,100362.22
2024-02-03T04:13:43.332Z,100351.19
2024-02-03T04:16:09.910Z,100349.69
2024-02-03T04:18:41.644Z,100347.78
2024-02-03T04:21:08.294Z,100346.03
2024-02-03T04:23:38.817Z,100355.81
2024-02-03T04:26:05.633Z,100355.84
2024-02-03T04:28:32.177Z,100350.25
2024-02-03T04:30:59.883Z,100346.41
2024-02-03T04:33:26.645Z,100346.84
2024-02-03T04:35:53.200Z,100350.31
2024-02-03T04:38:19.715Z,100347.56
2024-02-03T04:40:46.233Z,100353.62
2024-02-03T04:43:12.706Z,100351.22
2024-02-03T04:45:39.249Z,100359.59
2024-02-03T04:48:06.389Z,100352.22
2024-02-03T04:50:34.398Z,100342.75
2024-02-03T04:53:01.007Z,100340.53
2024-02-03T04:55:27.444Z,100344.31
2024-02-03T04:57:54.032Z,100338.56
2024-02-03T05:00:20.752Z,100344.12
2024-02-03T05:02:47.315Z,100345.81
2024-02-03T05:05:13.818Z,100345.31
2024-02-03T05:07:40.304Z,100339.34
2024-02-03T05:10:07.176Z,100336.34
2024-02-03T05:15:05.849Z,100337.62
2024-02-03T05:17:33.464Z,100342.91
2024-02-03T05:19:59.972Z,100332.81
2024-02-03T05:22:26.464Z,100342.37
2024-02-03T05:24:53.138Z,100336.88
2024-02-03T05:27:20.565Z,100324.47
2024-02-03T05:29:47.182Z,100322.88
2024-02-03T05:32:14.276Z,100330.72
2024-02-03T05:34:40.966Z,100325.44
2024-02-03T05:37:07.614Z,100328.00
2024-02-03T05:39:34.245Z,100323.88
2024-02-03T05:42:00.767Z,100333.66
2024-02-03T05:44:27.217Z,100337.91
2024-02-03T05:46:53.676Z,100342.06
2024-02-03T05:49:20.277Z,100353.28
2024-02-03T05:51:46.943Z,100349.88
2024-02-03T05:54:13.551Z,100359.69
2024-02-03T05:56:40.041Z,100366.91
2024-02-03T05:59:21.733Z,100362.97
2024-02-03T06:01:53.333Z,100364.50
2024-02-03T06:04:19.898Z,100368.38
2024-02-03T06:06:46.652Z,100364.47
2024-02-03T06:09:20.193Z,100367.47
2024-02-03T06:11:46.705Z,100357.47
2024-02-03T06:14:13.185Z,100364.41
2024-02-03T06:16:39.658Z,100358.97
2024-02-03T06:19:06.298Z,100370.62
2024-02-03T06:21:32.919Z,100385.75
2024-02-03T06:23:59.434Z,100384.22
2024-02-03T06:26:31.174Z,100386.31
2024-02-03T06:28:58.175Z,100395.00
2024-02-03T06:31:24.715Z,100396.19
2024-02-03T06:33:51.376Z,100402.00
2024-02-03T06:36:17.926Z,100407.06
2024-02-03T06:38:44.741Z,100413.13
2024-02-03T06:41:11.614Z,100417.97
2024-02-03T06:43:41.488Z,100428.13
2024-02-03T06:46:12.770Z,100434.97
2024-02-03T06:48:39.351Z,100437.03
2024-02-03T06:51:11.762Z,100426.03
2024-02-03T06:53:47.622Z,100427.34
2024-02-03T06:58:53.151Z,100432.75
2024-02-03T07:01:19.736Z,100428.31
2024-02-03T07:03:46.463Z,100425.88
2024-02-03T07:06:13.303Z,100424.88
2024-02-03T07:08:39.816Z,100434.00
2024-02-03T07:11:07.078Z,100436.50
2024-02-03T07:13:34.132Z,100418.38
2024-02-03T07:16:00.708Z,100426.13
2024-02-03T07:18:27.374Z,100425.59
2024-02-03T07:20:54.388Z,100430.22
2024-02-03T07:23:21.414Z,100428.44
2024-02-03T07:25:48.214Z,100428.25
2024-02-03T07:28:14.784Z,100434.06
2024-02-03T07:30:41.380Z,100422.22
2024-02-03T07:33:09.436Z,100433.87
2024-02-03T07:35:36.276Z,100422.88
2024-02-03T07:38:03.237Z,100437.19
2024-02-03T07:40:29.772Z,100431.16
2024-02-03T07:42:56.458Z,100427.22
2024-02-03T07:45:23.701Z,100427.09
2024-02-03T07:47:50.507Z,100430.97
2024-02-03T07:50:17.133Z,100427.06
2024-02-03T07:52:43.626Z,100425.44
2024-02-03T07:55:10.083Z,100433.00
2024-02-03T07:57:36.706Z,100439.00
2024-02-03T08:00:03.648Z,100437.47
2024-02-03T08:02:30.182Z,100443.91
2024-02-03T08:04:56.987Z,100437.09
2024-02-03T08:07:23.913Z,100442.75
2024-02-03T08:09:50.649Z,100439.09
2024-02-03T08:12:17.162Z,100445.62
2024-02-03T08:14:43.726Z,100452.88
2024-02-03T08:17:10.277Z,100454.09
2024-02-03T08:19:40.643Z,100463.97
2024-02-03T08:22:07.234Z,100460.66
2024-02-03T08:24:33.778Z,100459.38
2024-02-03T08:27:00.244Z,100463.41
2024-02-03T08:29:26.704Z,100467.06
2024-02-03T08:31:53.186Z,100463.28
2024-02-03T08:34:19.872Z,100461.72
2024-02-03T08:36:46.831Z,100465.41
2024-02-03T08:39:46.578Z,100461.00
2024-02-03T08:42:00.566Z,100458.28
2024-02-03T08:44:27.054Z,100454.88
2024-02-03T08:46:53.592Z,100463.97
2024-02-03T08:49:20.299Z,100469.16
2024-02-03T08:51:46.972Z,100477.16
2024-02-03T08:54:13.465Z,100478.44
2024-02-03T08:56:40.037Z,100473.38
2024-02-03T08:59:06.547Z,100474.09
2024-02-03T09:01:33.360Z,100470.84
2024-02-03T09:03:59.996Z,100478.53
2024-02-03T09:06:26.630Z,100477.28
2024-02-03T09:09:08.562Z,100469.78
2024-02-03T09:11:35.024Z,100468.19
2024-02-03T09:14:04.425Z,100469.28
2024-02-03T09:16:31.209Z,100465.47
2024-02-03T09:18:57.731Z,100468.41
2024-02-03T09:21:24.349Z,100465.84
2024-02-03T09:23:50.900Z,100470.38
2024-02-03T09:26:17.899Z,100471.97
2024-02-03T09:28:44.377Z,100465.41
2024-02-03T09:31:18.368Z,100467.06
2024-02-03T09:33:45.253Z,100487.91
2024-02-03T09:36:11.885Z,100485.41
2024-02-03T09:38:44.898Z,100481.59
2024-02-03T09:41:11.707Z,100490.75
2024-02-03T09:43:38.276Z,100492.31
2024-02-03T09:46:05.546Z,100491.84
2024-02-03T09:48:32.167Z,100487.44
2024-02-03T09:51:00.919Z,100482.03
2024-02-03T09:53:27.776Z,100488.78
2024-02-03T09:55:56.368Z,100485.97
2024-02-03T09:58:24.846Z,100484.78
2024-02-03T10:00:54.875Z,100489.59
2024-02-03T10:03:22.133Z,100480.47
2024-02-03T10:06:02.929Z,100475.28
2024-02-03T10:08:30.343Z,100468.50
2024-02-03T10:13:34.308Z,100466.59
2024-02-03T10:16:02.792Z,100464.66
2024-02-03T10:18:32.504Z,100457.28
2024-02-03T10:21:04.195Z,100463.28
2024-02-03T10:23:31.395Z,100461.41
2024-02-03T10:26:02.111Z,100447.97
2024-02-03T10:28:45.939Z,100438.38
2024-02-03T10:31:21.741Z,100436.22
2024-02-03T10:33:48.575Z,100417.38
2024-02-03T10:36:15.284Z,100427.50
2024-02-03T10:38:42.675Z,100414.91
2024-02-03T10:41:12.274Z,100411.62
2024-02-03T10:43:39.506Z,100417.09
2024-02-03T10:46:07.112Z,100414.09
2024-02-03T10:48:42.014Z,100411.91
2024-02-03T10:51:19.275Z,100400.69
2024-02-03T10:54:02.199Z,100391.16
2024-02-03T10:56:31.555Z,100398.78
2024-02-03T10:59:00.598Z,100392.25
2024-02-03T11:01:35.409Z,100402.91
2024-02-03T11:04:02.953Z,100396.31
2024-02-03T11:06:31.609Z,100409.19
2024-02-03T11:09:15.245Z,100392.53
2024-02-03T11:11:44.127Z,100395.25
2024-02-03T11:14:28.389Z,100379.69
2024-02-03T11:17:02.822Z,100379.37
2024-02-03T11:19:35.653Z,100378.03
2024-02-03T11:22:04.486Z,100361.91
2024-02-03T11:24:31.939Z,100364.38
2024-02-03T11:27:08.664Z,100367.13
2024-02-03T11:29:36.246Z,100361.63
2024-02-03T11:32:04.978Z,100364.91
2024-02-03T11:34:36.921Z,100358.09
2024-02-03T11:37:04.766Z,100345.78
2024-02-03T11:39:39.179Z,100368.47
2024-02-03T11:42:10.412Z,100355.63
2024-02-03T11:44:51.653Z,100366.81
2024-02-03T11:47:20.823Z,100362.44
2024-02-03T11:49:48.014Z,100361.09
2024-02-03T11:52:14.661Z,100349.88
2024-02-03T11:54:41.225Z,100334.88
2024-02-03T11:57:08.751Z,100343.62
2024-02-03T11:59:35.375Z,100346.03
2024-02-03T12:02:01.938Z,100334.78
2024-02-03T12:04:28.867Z,100349.06
2024-02-03T12:06:57.838Z,100335.00
2024-02-03T12:09:33.598Z,100348.47
2024-02-03T12:12:00.615Z,100355.06
2024-02-03T12:14:29.994Z,100358.06
2024-02-03T12:16:58.787Z,100372.78
2024-02-03T12:19:26.105Z,100359.97
2024-02-03T12:21:52.983Z,100354.53
2024-02-03T12:24:19.698Z,100349.31
2024-02-03T12:26:46.247Z,100351.78
2024-02-03T12:29:13.334Z,100348.53
2024-02-03T12:31:40.186Z,100343.59
2024-02-03T12:34:06.918Z,100349.59
2024-02-03T12:36:33.674Z,100352.06
2024-02-03T12:39:00.838Z,100354.78
2024-02-03T12:41:27.527Z,100362.72
2024-02-03T12:43:54.105Z,100366.53
2024-02-03T12:46:22.943Z,100363.81
2024-02-03T12:48:52.685Z,100368.47
2024-02-03T12:51:19.933Z,100368.75
2024-02-03T12:53:47.655Z,100375.28
2024-02-03T12:56:14.647Z,100373.13
2024-02-03T12:58:42.238Z,100368.19
2024-02-03T13:01:09.686Z,100358.91
2024-02-03T13:03:37.330Z,100369.84
2024-02-03T13:06:04.610Z,100355.63
2024-02-03T13:08:34.034Z,100359.72
2024-02-03T13:11:01.200Z,100364.88
2024-02-03T13:13:28.103Z,100357.00
2024-02-03T13:15:54.932Z,100363.56
2024-02-03T13:18:21.726Z,100349.63
2024-02-03T13:21:12.601Z,100351.81
2024-02-03T13:23:54.135Z,100357.81
2024-02-03T13:26:22.969Z,100359.72
2024-02-03T13:28:50.360Z,100364.66
2024-02-03T13:31:17.351Z,100358.91
2024-02-03T13:33:44.309Z,100354.25
2024-02-03T13:36:11.285Z,100369.03
2024-02-03T13:38:37.881Z,100357.81
2024-02-03T13:41:08.614Z,100352.31
2024-02-03T13:43:38.011Z,100348.41
2024-02-03T13:46:04.778Z,100344.41
2024-02-03T13:48:31.549Z,100337.81
2024-02-03T13:50:58.215Z,100342.72
2024-02-03T13:53:26.237Z,100347.66
2024-02-03T13:55:54.041Z,100345.75
2024-02-03T13:58:26.757Z,100346.03
2024-02-03T14:00:53.649Z,100350.16
2024-02-03T14:03:20.359Z,100352.91
2024-02-03T14:05:47.051Z,100352.06
2024-02-03T14:08:15.507Z,100351.53
2024-02-03T14:10:42.685Z,100361.09
2024-02-03T14:13:09.462Z,100351.78
2024-02-03T14:15:36.116Z,100374.47
2024-02-03T14:18:06.503Z,100375.28
2024-02-03T14:20:33.770Z,100376.91
2024-02-03T14:23:00.352Z,100373.94
2024-02-03T14:25:26.972Z,100372.84
2024-02-03T14:27:53.826Z,100384.78
2024-02-03T14:30:20.289Z,100389.47
2024-02-03T14:32:46.873Z,100391.84
2024-02-03T14:35:13.731Z,100391.62
2024-02-03T14:37:40.718Z,100388.53
2024-02-03T14:40:07.797Z,100386.97
2024-02-03T14:42:34.648Z,100392.97
2024-02-03T14:45:01.116Z,100390.84
2024-02-03T14:47:29.061Z,100399.31
2024-02-03T14:49:56.796Z,100399.03
2024-02-03T14:52:24.153Z,100396.53
2024-02-03T14:54:51.346Z,100407.47
2024-02-03T14:57:17.903Z,100411.31
2024-02-03T14:59:44.448Z,100408.34
2024-02-03T15:02:10.902Z,100401.50
2024-02-03T15:04:37.414Z,100405.63
2024-02-03T15:07:04.381Z,100414.13
2024-02-03T15:09:30.950Z,100412.75
2024-02-03T15:11:57.426Z,100414.66
2024-02-03T15:14:32.722Z,100411.34
2024-02-03T15:16:59.592Z,100419.84
2024-02-03T15:19:26.185Z,100406.69
2024-02-03T15:21:53.556Z,100408.38
2024-02-03T15:24:20.468Z,100400.31
2024-02-03T15:26:46.991Z,100398.06
2024-02-03T15:29:13.550Z,100401.97
2024-02-03T15:31:40.368Z,100402.31
2024-02-03T15:34:07.263Z,100401.12
2024-02-03T15:36:34.245Z,100392.03
2024-02-03T15:39:01.109Z,100397.22
2024-02-03T15:41:27.739Z,100401.38
2024-02-03T15:43:54.751Z,100400.63
2024-02-03T15:46:30.559Z,100395.59
2024-02-03T15:49:04.077Z,100391.59
2024-02-03T15:51:30.970Z,100397.88
2024-02-03T15:53:57.614Z,100394.03
2024-02-03T15:56:24.672Z,100390.59
2024-02-03T15:58:51.742Z,100397.31
2024-02-03T16:01:18.818Z,100396.53
2024-02-03T16:03:45.808Z,100395.50
2024-02-03T16:06:12.842Z,100398.53
2024-02-03T16:08:39.786Z,100403.09
2024-02-03T16:11:06.983Z,100401.25
2024-02-03T16:13:33.909Z,100402.00
2024-02-03T16:16:00.885Z,100409.69
2024-02-03T16:18:28.279Z,100417.81
2024-02-03T16:20:55.477Z,100406.03
2024-02-03T16:23:22.078Z,100416.56
2024-02-03T16:25:48.835Z,100419.03
2024-02-03T16:28:15.840Z,100409.19
2024-02-03T16:30:43.017Z,100409.66
2024-02-03T16:33:12.067Z,100410.00
2024-02-03T16:35:39.699Z,100410.25
2024-02-03T16:38:06.680Z,100413.78
2024-02-03T16:40:33.662Z,100414.31
2024-02-03T16:43:04.411Z,100420.84
2024-02-03T16:45:31.240Z,100414.56
2024-02-03T16:47:58.224Z,100427.78
2024-02-03T16:50:25.164Z,100429.09
2024-02-03T16:52:51.978Z,100429.66
2024-02-03T16:55:19.119Z,100424.72
2024-02-03T16:57:45.898Z,100425.84
2024-02-03T17:00:16.541Z,100428.03
2024-02-03T17:02:44.084Z,100419.28
2024-02-03T17:05:13.577Z,100424.19
2024-02-03T17:07:40.546Z,100421.75
2024-02-03T17:10:09.949Z,100422.00
2024-02-03T17:12:36.801Z,100422.25
2024-02-03T17:15:03.967Z,100414.56
2024-02-03T17:17:33.512Z,100415.44
2024-02-03T17:20:00.523Z,100415.41
2024-02-03T17:22:27.455Z,100410.00
2024-02-03T17:24:55.546Z,100406.19
2024-02-03T17:27:22.414Z,100419.03
2024-02-03T17:29:50.118Z,100417.13
2024-02-03T17:32:19.708Z,100418.72
2024-02-03T17:34:46.668Z,100413.00
2024-02-03T17:37:13.638Z,100420.13
2024-02-03T17:39:40.474Z,100420.37
2024-02-03T17:42:07.313Z,100420.37
2024-02-03T17:44:36.027Z,100425.56
2024-02-03T17:47:02.887Z,100416.28
2024-02-03T17:49:29.800Z,100422.78
2024-02-03T17:51:57.618Z,100425.78
2024-02-03T17:54:24.803Z,100421.13
2024-02-03T17:56:51.578Z,100428.75
2024-02-03T17:59:21.473Z,100429.94
2024-02-03T18:01:49.718Z,100415.69
2024-02-03T18:04:19.999Z,100423.91
2024-02-03T18:06:50.110Z,100424.13
2024-02-03T18:09:19.235Z,100426.84
2024-02-03T18:11:49.778Z,100427.63
2024-02-03T18:14:16.790Z,100422.78
2024-02-03T18:16:45.883Z,100420.81
2024-02-03T18:19:20.990Z,100421.44
2024-02-03T18:21:50.857Z,100433.22
2024-02-03T18:24:38.450Z,100428.59
2024-02-03T18:27:07.196Z,100439.78
2024-02-03T18:29:45.541Z,100435.97
2024-02-03T18:32:12.484Z,100438.16
2024-02-03T18:34:39.302Z,100436.50
2024-02-03T18:37:14.554Z,100432.12
2024-02-03T18:39:41.472Z,100429.41
2024-02-03T18:42:08.425Z,100428.84
2024-02-03T18:44:35.137Z,100430.75
2024-02-03T18:47:01.890Z,100426.69
2024-02-03T18:49:29.388Z,100429.12
2024-02-03T18:51:56.011Z,100433.78
2024-02-03T18:54:23.692Z,100430.25
2024-02-03T18:56:50.263Z,100424.47
2024-02-03T18:59:16.794Z,100431.88
2024-02-03T19:01:43.344Z,100433.50
2024-02-03T19:04:10.845Z,100429.41
2024-02-03T19:06:37.453Z,100432.12
2024-02-03T19:09:05.109Z,100430.19
2024-02-03T19:11:31.577Z,100438.41
2024-02-03T19:13:58.079Z,100429.09
2024-02-03T19:16:24.766Z,100432.91
2024-02-03T19:18:51.616Z,100442.28
2024-02-03T19:21:18.198Z,100437.59
2024-02-03T19:23:44.667Z,100431.06
2024-02-03T19:26:12.851Z,100423.69
2024-02-03T19:28:41.291Z,100422.31
2024-02-03T19:31:07.862Z,100424.75
2024-02-03T19:33:34.533Z,100434.06
2024-02-03T19:36:01.083Z,100422.56
2024-02-03T19:38:27.520Z,100434.28
2024-02-03T19:40:54.384Z,100438.06
2024-02-03T19:43:20.860Z,100431.03
2024-02-03T19:45:47.520Z,100440.28
2024-02-03T19:48:14.310Z,100430.75
2024-02-03T19:50:41.155Z,100436.81
2024-02-03T19:53:08.319Z,100432.16
2024-02-03T19:55:35.241Z,100432.69
2024-02-03T19:58:02.401Z,100434.59
2024-02-03T20:00:29.187Z,100424.22
2024-02-03T20:02:55.931Z,100436.78
2024-02-03T20:05:22.623Z,100435.16
2024-02-03T20:07:49.387Z,100443.34
2024-02-03T20:10:18.161Z,100454.81
2024-02-03T20:12:44.828Z,100446.91
2024-02-03T20:15:12.659Z,100444.94
2024-02-03T20:17:41.130Z,100454.56
2024-02-03T20:20:08.236Z,100449.91
2024-02-03T20:22:35.220Z,100449.09
2024-02-03T20:25:02.197Z,100457.03
2024-02-03T20:27:28.983Z,100456.19
2024-02-03T20:29:55.790Z,100458.31
2024-02-03T20:32:22.351Z,100453.72
2024-02-03T20:34:49.067Z,100440.06
2024-02-03T20:37:16.057Z,100445.56
2024-02-03T20:39:45.780Z,100450.09
2024-02-03T20:42:12.305Z,100445.19
2024-02-03T20:44:38.832Z,100438.34
2024-02-03T20:47:06.229Z,100432.34
2024-02-03T20:49:33.063Z,100425.94
2024-02-03T20:52:00.431Z,100424.13
2024-02-03T20:54:27.090Z,100427.06
2024-02-03T20:56:53.698Z,100425.78
2024-02-03T20:59:20.364Z,100425.19
2024-02-03T21:01:46.924Z,100423.50
2024-02-03T21:04:14.180Z,100411.66
2024-02-03T21:06:41.388Z,100407.88
2024-02-03T21:09:15.213Z,100396.56
2024-02-03T21:11:42.581Z,100401.59
2024-02-03T21:14:09.342Z,100400.81
2024-02-03T21:16:36.565Z,100400.81
2024-02-03T21:19:03.832Z,100407.47
2024-02-03T21:21:38.700Z,100411.59
2024-02-03T21:24:05.990Z,100402.97
2024-02-03T21:26:32.644Z,100408.53
2024-02-03T21:28:59.345Z,100401.56
2024-02-03T21:31:27.012Z,100405.03
2024-02-03T21:33:54.236Z,100399.97
2024-02-03T21:36:21.462Z,100400.75
2024-02-03T21:38:49.170Z,100402.03
2024-02-03T21:41:16.293Z,100400.94
2024-02-03T21:43:42.779Z,100400.38
2024-02-03T21:46:09.373Z,100404.81
2024-02-03T21:48:36.027Z,100394.19
2024-02-03T21:51:02.637Z,100397.06
2024-02-03T21:53:29.211Z,100402.00
2024-02-03T21:55:57.071Z,100398.00
2024-02-03T21:58:23.605Z,100393.03
2024-02-03T22:00:52.231Z,100387.91
2024-02-03T22:03:19.226Z,100384.34
2024-02-03T22:05:46.196Z,100393.37
2024-02-03T22:08:13.659Z,100392.19
2024-02-03T22:10:40.300Z,100391.59
2024-02-03T22:13:07.221Z,100398.81
2024-02-03T22:15:34.346Z,100401.03
2024-02-03T22:18:01.352Z,100410.28
2024-02-03T22:20:27.969Z,100420.22
2024-02-03T22:22:54.541Z,100423.22
2024-02-03T22:25:21.032Z,100429.31
2024-02-03T22:27:47.602Z,100420.91
2024-02-03T22:30:15.347Z,100423.41
2024-02-03T22:32:42.276Z,100414.34
2024-02-03T22:35:10.055Z,100407.00
2024-02-03T22:37:38.515Z,100405.97
2024-02-03T22:40:06.294Z,100413.09
2024-02-03T22:42:32.983Z,100410.94
2024-02-03T22:44:59.579Z,100401.59
2024-02-03T22:47:26.143Z,100405.78
2024-02-03T22:49:53.189Z,100388.81
2024-02-03T22:52:19.930Z,100386.72
2024-02-03T22:54:46.428Z,100389.69
2024-02-03T22:57:12.960Z,100380.53
2024-02-03T22:59:39.503Z,100371.44
2024-02-03T23:02:06.316Z,100377.50
2024-02-03T23:07:53.481Z,100386.59
2024-02-03T23:10:20.242Z,100387.41
2024-02-03T23:12:49.674Z,100386.84
2024-02-03T23:15:16.512Z,100389.16
2024-02-03T23:17:44.738Z,100396.13
2024-02-03T23:20:13.041Z,100386.56
2024-02-03T23:22:43.328Z,100385.66
2024-02-03T23:25:11.300Z,100373.59
2024-02-03T23:29:30.339Z,100378.19
2024-02-03T23:31:08.343Z,100365.28
2024-02-03T23:33:39.580Z,100363.38
2024-02-03T23:36:07.053Z,100364.22
2024-02-03T23:38:33.631Z,100363.97
2024-02-03T23:41:00.838Z,100349.28
2024-02-03T23:43:27.820Z,100348.44
2024-02-03T23:45:54.326Z,100349.94
2024-02-03T23:48:20.928Z,100349.84
2024-02-03T23:50:47.778Z,100339.59
2024-02-03T23:53:16.257Z,100341.09
2024-02-03T23:55:43.768Z,100333.25
2024-02-03T23:58:10.720Z,100330.00
